Time;durP1;ratioP1;P1;durP2;ratioP2;P2;SDS_P1;SDS_P2;PMS_P1;PMS_P2;Temp;Humidity;BMP_temperature;BMP_pressure;BME280_temperature;BME280_humidity;BME280_pressure;Samples;Min_cycle;Max_cycle;Signal;HPM_P1;HPM_P2
2023/04/18 00:02:02;;;;;;;14.93;7.72;;;8.60;99.90;;;;;;4993760;28;20057;-84
2023/04/18 00:04:49;;;;;;;14.45;7.75;;;8.50;99.90;;;;;;5011715;28;20050;-86
2023/04/18 00:07:35;;;;;;;15.80;7.25;;;8.50;99.90;;;;;;4993941;28;20552;-84
2023/04/18 00:10:21;;;;;;;13.35;7.13;;;8.50;99.90;;;;;;4993144;28;20054;-83
2023/04/18 00:13:09;;;;;;;12.95;7.07;;;8.40;99.90;;;;;;4992725;28;20395;-86
2023/04/18 00:15:55;;;;;;;13.38;7.03;;;8.40;99.90;;;;;;4981214;28;20045;-85
2023/04/18 00:18:41;;;;;;;15.77;7.75;;;8.40;99.90;;;;;;4993626;28;20521;-84
2023/04/18 00:21:28;;;;;;;13.88;6.72;;;8.40;99.90;;;;;;5009985;28;20061;-84
2023/04/18 00:24:15;;;;;;;12.35;7.15;;;8.40;99.90;;;;;;4980236;28;20060;-83
2023/04/18 00:27:02;;;;;;;14.93;7.93;;;8.40;99.90;;;;;;5010415;28;20093;-82
2023/04/18 00:29:50;;;;;;;16.50;7.45;;;8.40;99.90;;;;;;4992796;28;20056;-86
2023/04/18 00:32:39;;;;;;;13.30;7.10;;;8.30;99.90;;;;;;4996697;28;20049;-84
2023/04/18 00:35:25;;;;;;;17.38;7.93;;;8.40;99.90;;;;;;4979072;28;20104;-82
2023/04/18 00:38:11;;;;;;;17.45;6.95;;;8.30;99.90;;;;;;4981460;28;20053;-82
2023/04/18 00:40:57;;;;;;;13.50;7.10;;;8.30;99.90;;;;;;4992927;28;20144;-79
2023/04/18 00:43:43;;;;;;;18.52;7.80;;;8.20;99.90;;;;;;4993473;28;20058;-84
2023/04/18 00:46:29;;;;;;;12.93;6.82;;;8.20;99.90;;;;;;4995255;28;20088;-81
2023/04/18 00:49:20;;;;;;;16.38;8.05;;;8.20;99.90;;;;;;4999737;28;20132;-83
2023/04/18 00:52:06;;;;;;;16.60;7.38;;;8.20;99.90;;;;;;5008505;28;20143;-86
2023/04/18 00:54:53;;;;;;;16.65;8.00;;;8.20;99.90;;;;;;4993789;28;20046;-83
2023/04/18 00:57:40;;;;;;;16.58;7.32;;;8.20;99.90;;;;;;5010721;28;20402;-86
2023/04/18 01:00:26;;;;;;;16.52;6.95;;;8.10;99.90;;;;;;4992640;28;20061;-84
2023/04/18 01:03:17;;;;;;;13.55;6.07;;;8.10;99.90;;;;;;4992501;28;20124;-84
2023/04/18 01:06:05;;;;;;;11.00;5.93;;;8.10;99.90;;;;;;4980749;28;20057;-86
2023/04/18 01:08:53;;;;;;;9.30;5.30;;;8.10;99.90;;;;;;4992833;28;20061;-84
2023/04/18 01:11:39;;;;;;;14.27;6.88;;;8.10;99.90;;;;;;4992466;28;20054;-86
2023/04/18 01:14:25;;;;;;;12.02;5.68;;;8.00;99.90;;;;;;4991680;28;20054;-87
2023/04/18 01:17:15;;;;;;;15.15;6.80;;;8.00;99.90;;;;;;4996525;28;20142;-87
2023/04/18 01:20:05;;;;;;;12.77;5.57;;;8.00;99.90;;;;;;5008900;28;20068;-88
2023/04/18 01:22:51;;;;;;;15.13;6.68;;;8.00;99.90;;;;;;4992594;28;20083;-85
2023/04/18 01:25:38;;;;;;;12.93;6.55;;;7.90;99.90;;;;;;4991604;28;20133;-83
2023/04/18 01:28:26;;;;;;;18.45;6.38;;;7.90;99.90;;;;;;4991691;28;20502;-86
2023/04/18 01:31:12;;;;;;;12.52;5.65;;;7.90;99.90;;;;;;4979908;28;20058;-85
2023/04/18 01:33:58;;;;;;;9.25;4.78;;;7.90;99.90;;;;;;4991190;28;20056;-78
2023/04/18 01:36:45;;;;;;;10.05;5.75;;;7.90;99.90;;;;;;5009634;28;20054;-79
2023/04/18 01:39:31;;;;;;;11.25;4.85;;;7.90;99.90;;;;;;4978852;28;20062;-82
2023/04/18 01:42:17;;;;;;;9.50;5.15;;;7.90;99.90;;;;;;4991128;28;20056;-83
2023/04/18 01:45:05;;;;;;;9.10;4.68;;;7.90;99.90;;;;;;4994433;28;20108;-83
2023/04/18 01:47:51;;;;;;;9.52;4.97;;;7.80;99.90;;;;;;4995060;28;20050;-83
2023/04/18 01:50:37;;;;;;;9.73;4.88;;;7.80;99.90;;;;;;4995445;28;20107;-84
2023/04/18 01:53:24;;;;;;;10.52;4.13;;;7.80;99.90;;;;;;4995306;28;20057;-87
2023/04/18 01:56:10;;;;;;;7.57;3.85;;;7.70;99.90;;;;;;4996792;28;20060;-82
2023/04/18 01:58:56;;;;;;;9.73;4.25;;;7.70;99.90;;;;;;5014078;28;20057;-84
2023/04/18 02:01:42;;;;;;;8.75;4.82;;;7.70;99.90;;;;;;4995646;28;20049;-86
2023/04/18 02:04:28;;;;;;;10.90;5.38;;;7.70;99.90;;;;;;4982386;28;20132;-87
2023/04/18 02:07:17;;;;;;;11.02;5.38;;;7.70;99.90;;;;;;5013193;28;20057;-86
2023/04/18 02:10:04;;;;;;;12.57;5.43;;;7.70;99.90;;;;;;4994522;28;20050;-86
2023/04/18 02:12:50;;;;;;;9.82;6.00;;;7.60;99.90;;;;;;5011242;28;20141;-85
2023/04/18 02:15:37;;;;;;;10.70;5.82;;;7.70;99.90;;;;;;5012340;28;20140;-83
2023/04/18 02:18:24;;;;;;;11.00;6.05;;;7.60;99.90;;;;;;4982914;28;20196;-84
2023/04/18 02:21:10;;;;;;;11.82;6.05;;;7.50;99.90;;;;;;4995590;28;20470;-82
2023/04/18 02:23:56;;;;;;;12.57;7.10;;;7.50;99.90;;;;;;4995516;28;20489;-80
2023/04/18 02:26:43;;;;;;;11.65;5.88;;;7.50;99.90;;;;;;4995246;28;20045;-80
2023/04/18 02:29:30;;;;;;;16.08;6.88;;;7.40;99.90;;;;;;4995216;28;20050;-84
2023/04/18 02:32:16;;;;;;;13.35;7.00;;;7.40;99.90;;;;;;4994778;28;20757;-82
2023/04/18 02:35:03;;;;;;;12.82;7.38;;;7.40;99.90;;;;;;4994109;28;20065;-84
2023/04/18 02:37:49;;;;;;;11.45;5.78;;;7.40;99.90;;;;;;4995447;28;20049;-84
2023/04/18 02:40:39;;;;;;;13.15;5.05;;;7.30;99.90;;;;;;4996107;28;20047;-80
2023/04/18 02:43:25;;;;;;;13.25;5.28;;;7.40;99.90;;;;;;4995543;28;20132;-85
2023/04/18 02:46:11;;;;;;;12.02;5.20;;;7.30;99.90;;;;;;4993542;28;20050;-84
2023/04/18 02:48:57;;;;;;;13.40;5.18;;;7.30;99.90;;;;;;4993561;28;20580;-84
2023/04/18 02:51:44;;;;;;;11.07;5.70;;;7.30;99.90;;;;;;4993611;28;20042;-84
2023/04/18 02:54:30;;;;;;;13.43;5.43;;;7.30;99.90;;;;;;4980808;28;20413;-83
2023/04/18 02:57:16;;;;;;;13.52;6.38;;;7.30;99.90;;;;;;5010159;28;20058;-85
2023/04/18 03:00:03;;;;;;;10.23;4.75;;;7.30;99.90;;;;;;4993559;28;20056;-82
2023/04/18 03:02:51;;;;;;;14.18;5.53;;;7.30;99.90;;;;;;4994528;28;20057;-86
2023/04/18 03:05:41;;;;;;;14.55;6.75;;;7.30;99.90;;;;;;4993954;28;20486;-86
2023/04/18 03:08:27;;;;;;;12.80;6.18;;;7.40;99.90;;;;;;4981375;28;20052;-85
2023/04/18 03:11:13;;;;;;;13.88;6.15;;;7.40;99.90;;;;;;4993216;28;20077;-83
2023/04/18 03:13:59;;;;;;;13.30;6.28;;;7.50;99.90;;;;;;4981291;28;20133;-83
2023/04/18 03:16:45;;;;;;;13.73;6.85;;;7.50;99.90;;;;;;4997795;28;20057;-85
2023/04/18 03:19:31;;;;;;;16.40;8.10;;;7.50;99.90;;;;;;5012423;28;20149;-83
2023/04/18 03:22:18;;;;;;;20.42;8.55;;;7.60;99.90;;;;;;4994377;28;20054;-84
2023/04/18 03:25:07;;;;;;;17.58;7.85;;;7.60;99.90;;;;;;5011651;28;20057;-85
2023/04/18 03:27:54;;;;;;;13.77;7.53;;;7.70;99.90;;;;;;4980985;28;20050;-81
2023/04/18 03:30:41;;;;;;;13.63;6.93;;;7.70;99.90;;;;;;5013491;28;20099;-82
2023/04/18 03:33:30;;;;;;;18.40;7.38;;;7.70;99.90;;;;;;4995811;28;20054;-85
2023/04/18 03:36:17;;;;;;;14.93;7.47;;;7.70;99.90;;;;;;4995151;28;20145;-86
2023/04/18 03:39:03;;;;;;;19.67;7.20;;;7.70;99.90;;;;;;4981246;28;20494;-85
2023/04/18 03:41:51;;;;;;;15.27;8.27;;;7.70;99.90;;;;;;5011475;28;20096;-86
2023/04/18 03:44:36;;;;;;;15.73;8.15;;;7.80;99.90;;;;;;4994153;28;20103;-86
2023/04/18 03:47:22;;;;;;;21.10;9.05;;;7.80;99.90;;;;;;4992818;28;20141;-85
2023/04/18 03:50:12;;;;;;;19.98;9.38;;;7.80;99.90;;;;;;4993348;28;20050;-86
2023/04/18 03:52:58;;;;;;;18.23;8.65;;;7.80;99.90;;;;;;4991970;28;20196;-87
2023/04/18 03:55:44;;;;;;;22.70;9.73;;;7.80;99.90;;;;;;4992386;28;20484;-85
2023/04/18 03:58:30;;;;;;;16.60;8.93;;;7.80;99.90;;;;;;5010014;28;20085;-85
2023/04/18 04:01:16;;;;;;;16.50;9.32;;;7.80;99.90;;;;;;4992245;28;20572;-84
2023/04/18 04:04:03;;;;;;;25.27;10.13;;;7.80;99.90;;;;;;4994172;28;20391;-85
2023/04/18 04:06:52;;;;;;;19.80;10.27;;;7.80;99.90;;;;;;5010561;28;20057;-85
2023/04/18 04:09:38;;;;;;;19.05;9.55;;;7.80;99.90;;;;;;4992128;28;20054;-86
2023/04/18 04:12:25;;;;;;;17.67;9.27;;;7.80;99.90;;;;;;4979851;28;20061;-86
2023/04/18 04:15:11;;;;;;;19.38;9.80;;;7.80;99.90;;;;;;5009877;28;20706;-85
2023/04/18 04:17:57;;;;;;;17.30;10.05;;;7.80;99.90;;;;;;4983074;28;20049;-85
2023/04/18 04:20:45;;;;;;;17.15;8.90;;;7.80;99.90;;;;;;5012234;28;20062;-87
2023/04/18 04:23:32;;;;;;;17.67;9.27;;;7.80;99.90;;;;;;4993278;28;20061;-86
2023/04/18 04:26:18;;;;;;;17.92;9.27;;;7.80;99.90;;;;;;4993210;28;20446;-86
2023/04/18 04:29:04;;;;;;;21.25;10.40;;;7.80;99.90;;;;;;4992595;28;20054;-83
2023/04/18 04:31:53;;;;;;;23.92;10.40;;;7.80;99.90;;;;;;4992628;28;20099;-81
2023/04/18 04:34:40;;;;;;;21.27;10.48;;;7.80;99.90;;;;;;4993053;28;20046;-84
2023/04/18 04:37:26;;;;;;;16.83;9.40;;;7.80;99.90;;;;;;4992537;28;20502;-83
2023/04/18 04:40:14;;;;;;;17.17;9.38;;;7.80;99.90;;;;;;4992440;28;20137;-87
2023/04/18 04:43:00;;;;;;;18.10;9.25;;;7.80;99.90;;;;;;4979460;28;20060;-84
2023/04/18 04:45:52;;;;;;;19.48;9.93;;;7.80;99.90;;;;;;4980190;28;20054;-82
2023/04/18 04:48:38;;;;;;;16.40;9.90;;;7.80;99.90;;;;;;5010142;28;20125;-86
2023/04/18 04:51:25;;;;;;;20.65;9.75;;;7.80;99.90;;;;;;4991958;28;20057;-86
2023/04/18 04:54:10;;;;;;;20.70;10.20;;;7.80;99.90;;;;;;4979827;28;20092;-82
2023/04/18 04:56:57;;;;;;;18.80;9.93;;;7.80;99.90;;;;;;5010386;28;20073;-82
2023/04/18 04:59:43;;;;;;;16.90;9.23;;;7.80;99.90;;;;;;4993712;28;20405;-85
2023/04/18 05:02:29;;;;;;;20.92;10.07;;;7.80;99.90;;;;;;5010144;28;20053;-84
2023/04/18 05:05:16;;;;;;;22.10;9.30;;;7.90;99.90;;;;;;4993024;28;20050;-82
2023/04/18 05:08:06;;;;;;;19.95;9.77;;;7.90;99.90;;;;;;5011303;28;20084;-79
2023/04/18 05:10:54;;;;;;;19.38;9.60;;;7.90;99.90;;;;;;4980492;28;20494;-84
2023/04/18 05:13:40;;;;;;;15.48;8.75;;;7.90;99.90;;;;;;4980082;28;20057;-85
2023/04/18 05:16:26;;;;;;;17.67;9.25;;;7.90;99.90;;;;;;4993054;28;20050;-84
2023/04/18 05:19:12;;;;;;;19.27;10.65;;;8.00;99.90;;;;;;4991514;28;20469;-82
2023/04/18 05:21:58;;;;;;;19.77;10.45;;;8.00;99.90;;;;;;4991880;28;20084;-85
2023/04/18 05:24:45;;;;;;;19.23;9.55;;;8.00;99.90;;;;;;4993278;28;20049;-82
2023/04/18 05:27:31;;;;;;;16.23;9.10;;;8.00;99.90;;;;;;4996829;28;20053;-84
2023/04/18 05:30:18;;;;;;;16.42;9.63;;;8.00;99.90;;;;;;4982791;28;20519;-83
2023/04/18 05:33:04;;;;;;;18.08;9.45;;;8.10;99.90;;;;;;4983638;28;20042;-79
2023/04/18 05:35:50;;;;;;;21.65;9.48;;;8.00;99.90;;;;;;4982493;28;20132;-82
2023/04/18 05:38:36;;;;;;;17.55;8.35;;;8.10;99.90;;;;;;4995150;28;20169;-81
2023/04/18 05:41:22;;;;;;;18.23;8.95;;;8.10;99.90;;;;;;4994809;28;20453;-82
2023/04/18 05:44:08;;;;;;;18.20;8.73;;;8.20;99.90;;;;;;4981639;28;20060;-79
2023/04/18 05:46:57;;;;;;;14.70;7.72;;;8.20;99.90;;;;;;4996021;28;20062;-83
2023/04/18 05:49:43;;;;;;;17.55;7.05;;;8.40;99.90;;;;;;5014538;28;20073;-82
2023/04/18 05:52:30;;;;;;;15.30;8.65;;;8.50;99.90;;;;;;4995703;28;20053;-81
2023/04/18 05:55:17;;;;;;;16.38;7.75;;;8.70;99.90;;;;;;4983049;28;20061;-84
2023/04/18 05:58:03;;;;;;;15.90;8.85;;;8.80;99.90;;;;;;5012235;28;20494;-83
2023/04/18 06:00:49;;;;;;;13.00;6.47;;;8.80;99.90;;;;;;4998819;28;20092;-81
2023/04/18 06:03:35;;;;;;;19.08;6.63;;;8.90;99.90;;;;;;4994445;28;20046;-85
2023/04/18 06:06:21;;;;;;;11.43;5.72;;;8.90;99.90;;;;;;4982933;28;20056;-82
2023/04/18 06:09:07;;;;;;;13.25;6.07;;;9.00;99.90;;;;;;4994102;28;20081;-85
2023/04/18 06:11:53;;;;;;;12.65;7.35;;;9.00;99.90;;;;;;4995157;28;20123;-82
2023/04/18 06:14:39;;;;;;;12.60;6.03;;;9.20;99.90;;;;;;4981903;28;20053;-85
2023/04/18 06:17:25;;;;;;;12.55;6.70;;;9.10;99.90;;;;;;5012080;28;20611;-86
2023/04/18 06:20:11;;;;;;;12.63;6.68;;;9.20;99.90;;;;;;4994993;28;20673;-84
2023/04/18 06:22:57;;;;;;;19.42;7.55;;;9.30;99.90;;;;;;4982278;28;20595;-83
2023/04/18 06:25:43;;;;;;;17.40;7.45;;;9.30;99.90;;;;;;4993700;28;20064;-84
2023/04/18 06:28:29;;;;;;;16.33;7.32;;;9.50;99.90;;;;;;4994118;28;20137;-79
2023/04/18 06:31:18;;;;;;;15.70;7.88;;;9.50;99.90;;;;;;4994952;28;20054;-84
2023/04/18 06:34:05;;;;;;;18.27;7.85;;;9.50;99.90;;;;;;4995557;28;20046;-82
2023/04/18 06:36:51;;;;;;;17.83;6.50;;;9.60;99.90;;;;;;4995478;28;20192;-82
2023/04/18 06:39:37;;;;;;;14.05;6.93;;;9.70;99.90;;;;;;4994745;28;20149;-82
2023/04/18 06:42:26;;;;;;;25.48;7.63;;;9.80;99.90;;;;;;5013069;28;20088;-84
2023/04/18 06:45:13;;;;;;;16.00;6.75;;;9.80;99.90;;;;;;4994425;28;20501;-82
2023/04/18 06:48:03;;;;;;;13.80;6.88;;;10.00;99.90;;;;;;4996104;28;20069;-85
2023/04/18 06:50:50;;;;;;;14.80;7.05;;;10.00;99.90;;;;;;4994660;28;20103;-85
2023/04/18 06:53:36;;;;;;;13.07;7.22;;;10.10;99.90;;;;;;5009430;28;20054;-85
2023/04/18 06:56:22;;;;;;;27.50;8.85;;;10.20;99.90;;;;;;4981136;28;20491;-87
2023/04/18 06:59:08;;;;;;;14.73;6.82;;;10.30;99.90;;;;;;4994231;28;20054;-80
2023/04/18 07:01:54;;;;;;;12.23;6.47;;;10.40;99.90;;;;;;4981538;28;20084;-86
2023/04/18 07:04:40;;;;;;;14.75;7.22;;;10.50;99.90;;;;;;4980810;28;20093;-86
2023/04/18 07:07:26;;;;;;;11.95;7.05;;;10.50;99.90;;;;;;4996034;28;20391;-86
2023/04/18 07:10:14;;;;;;;13.30;6.10;;;10.60;99.90;;;;;;5011361;28;20053;-86
2023/04/18 07:13:00;;;;;;;13.32;6.15;;;10.70;99.90;;;;;;4994156;28;20564;-85
2023/04/18 07:15:46;;;;;;;12.25;5.80;;;10.90;99.90;;;;;;4994057;28;20813;-82
2023/04/18 07:18:32;;;;;;;10.55;5.05;;;11.00;99.90;;;;;;5012811;28;20050;-81
2023/04/18 07:21:19;;;;;;;15.77;5.60;;;11.00;99.90;;;;;;4986282;28;20624;-83
2023/04/18 07:24:05;;;;;;;12.13;4.93;;;11.10;99.90;;;;;;4994713;28;20054;-84
2023/04/18 07:26:53;;;;;;;11.48;5.10;;;11.20;99.90;;;;;;4973974;28;20046;-83
2023/04/18 07:29:39;;;;;;;9.52;4.85;;;11.40;99.90;;;;;;4974339;28;20149;-87
2023/04/18 07:32:26;;;;;;;13.38;5.65;;;11.50;99.90;;;;;;4974427;28;20053;-84
2023/04/18 07:35:14;;;;;;;13.82;5.65;;;11.70;99.90;;;;;;4977881;28;20054;-85
2023/04/18 07:38:00;;;;;;;11.05;5.40;;;11.80;99.90;;;;;;4973573;28;20089;-85
2023/04/18 07:40:54;;;;;;;11.07;5.70;;;11.90;99.90;;;;;;4974554;28;20046;-86
2023/04/18 07:43:40;;;;;;;9.60;5.50;;;12.00;99.90;;;;;;4990481;28;20092;-80
2023/04/18 07:46:31;;;;;;;19.65;6.05;;;12.00;99.90;;;;;;4974056;28;20503;-79
2023/04/18 07:49:17;;;;;;;11.23;5.07;;;12.10;99.90;;;;;;4948551;28;20057;-82
2023/04/18 07:52:04;;;;;;;11.50;5.00;;;12.20;99.90;;;;;;4973369;28;20094;-84
2023/04/18 07:54:50;;;;;;;11.18;5.90;;;12.30;99.90;;;;;;4973289;28;20054;-83
2023/04/18 07:57:36;;;;;;;11.35;5.38;;;12.60;99.90;;;;;;4973790;28;20125;-84
2023/04/18 08:00:23;;;;;;;15.45;5.60;;;12.60;99.90;;;;;;4960529;28;20498;-85
2023/04/18 08:03:10;;;;;;;13.27;5.85;;;12.70;99.90;;;;;;4974623;28;20050;-82
2023/04/18 08:06:01;;;;;;;13.52;6.63;;;12.80;99.90;;;;;;4976492;28;20050;-83
2023/04/18 08:08:47;;;;;;;14.57;5.80;;;12.80;99.90;;;;;;4975601;28;20363;-86
2023/04/18 08:11:34;;;;;;;11.68;5.82;;;12.80;99.90;;;;;;4973862;28;20107;-87
2023/04/18 08:14:20;;;;;;;11.02;5.90;;;12.90;99.90;;;;;;4973383;28;20058;-87
2023/04/18 08:17:06;;;;;;;14.48;6.50;;;12.90;99.90;;;;;;4975854;28;20517;-86
2023/04/18 08:19:52;;;;;;;13.23;6.05;;;13.00;99.90;;;;;;4974340;28;20054;-84
2023/04/18 08:22:38;;;;;;;11.32;6.43;;;13.10;99.90;;;;;;4961242;28;20197;-86
2023/04/18 08:25:24;;;;;;;13.48;5.85;;;13.20;99.00;;;;;;4978666;28;20049;-82
2023/04/18 08:28:13;;;;;;;15.48;6.72;;;13.20;98.70;;;;;;4979988;28;20501;-84
2023/04/18 08:30:59;;;;;;;14.00;6.05;;;13.30;98.60;;;;;;4991961;28;20058;-85
2023/04/18 08:33:45;;;;;;;13.20;6.60;;;13.40;98.80;;;;;;4996945;28;20051;-82
2023/04/18 08:36:31;;;;;;;13.13;6.60;;;13.50;98.20;;;;;;4992092;28;20138;-82
2023/04/18 08:39:17;;;;;;;14.38;8.05;;;13.60;98.10;;;;;;4979571;28;20418;-86
2023/04/18 08:42:05;;;;;;;11.45;6.55;;;13.70;97.10;;;;;;4992913;28;20045;-83
2023/04/18 08:44:51;;;;;;;11.95;6.47;;;13.80;96.90;;;;;;4992663;28;20112;-85
2023/04/18 08:47:37;;;;;;;10.57;6.65;;;13.90;97.10;;;;;;4980128;28;20241;-85
2023/04/18 08:50:23;;;;;;;14.13;7.07;;;14.10;96.90;;;;;;4980039;28;20137;-82
2023/04/18 08:53:10;;;;;;;11.82;6.07;;;14.10;96.20;;;;;;4980387;28;20046;-84
2023/04/18 08:55:56;;;;;;;11.82;7.00;;;14.10;96.30;;;;;;4995769;28;20137;-83
2023/04/18 08:58:43;;;;;;;11.88;6.25;;;14.20;96.40;;;;;;4993726;28;20081;-85
2023/04/18 09:01:55;;;;;;;13.95;7.68;;;14.50;96.60;;;;;;4997595;28;20053;-87
2023/04/18 09:04:44;;;;;;;11.90;6.53;;;14.40;95.10;;;;;;4982047;28;20057;-87
2023/04/18 09:07:30;;;;;;;11.73;6.85;;;14.50;95.40;;;;;;4995496;28;20522;-87
2023/04/18 09:10:32;;;;;;;10.68;6.47;;;14.60;95.30;;;;;;5011135;28;20058;-86
2023/04/18 09:13:37;;;;;;;11.27;7.00;;;14.80;95.20;;;;;;5014159;28;20049;-87
2023/04/18 09:16:24;;;;;;;11.48;7.15;;;14.80;93.90;;;;;;4982101;28;20486;-88
2023/04/18 09:19:17;;;;;;;14.00;6.97;;;14.80;94.40;;;;;;4995709;28;20104;-87
2023/04/18 09:22:03;;;;;;;14.10;6.53;;;14.90;94.20;;;;;;4996305;28;20136;-87
2023/04/18 09:24:56;;;;;;;11.50;5.97;;;15.10;94.40;;;;;;4996716;28;20049;-84
2023/04/18 09:27:43;;;;;;;11.95;7.18;;;15.30;94.50;;;;;;4996818;28;20077;-83
2023/04/18 09:30:38;;;;;;;12.18;6.68;;;15.30;93.50;;;;;;5013283;28;20469;-85
2023/04/18 09:33:32;;;;;;;14.40;7.47;;;15.50;93.10;;;;;;4981621;28;20053;-85
2023/04/18 09:36:30;;;;;;;13.38;6.93;;;15.60;93.80;;;;;;4999934;28;20046;-86
2023/04/18 09:39:27;;;;;;;14.10;7.88;;;15.70;94.50;;;;;;5000379;28;20057;-81
2023/04/18 09:42:13;;;;;;;12.73;6.75;;;15.80;94.10;;;;;;4985332;28;20101;-83
2023/04/18 09:45:04;;;;;;;18.10;7.97;;;15.80;94.20;;;;;;5011765;28;20065;-85
2023/04/18 09:47:52;;;;;;;16.92;8.05;;;15.80;94.50;;;;;;4995139;28;20054;-88
2023/04/18 09:50:41;;;;;;;13.02;7.43;;;16.00;95.10;;;;;;4995287;28;20053;-88
2023/04/18 09:53:28;;;;;;;14.85;7.85;;;16.10;94.80;;;;;;4995610;28;20046;-86
2023/04/18 09:56:24;;;;;;;12.77;7.65;;;16.00;94.80;;;;;;4994492;28;20054;-88
2023/04/18 09:59:11;;;;;;;13.88;7.82;;;16.00;94.10;;;;;;4994792;28;20053;-85
2023/04/18 10:01:58;;;;;;;14.73;7.22;;;16.00;94.60;;;;;;4982483;28;20057;-86
2023/04/18 10:04:46;;;;;;;14.85;7.70;;;16.10;94.80;;;;;;5011526;28;20045;-87
2023/04/18 10:07:32;;;;;;;12.75;7.95;;;16.10;94.60;;;;;;4981939;28;20410;-86
2023/04/18 10:10:21;;;;;;;11.60;7.28;;;16.40;95.10;;;;;;4981854;28;20053;-86
2023/04/18 10:13:10;;;;;;;12.48;8.20;;;16.40;94.50;;;;;;4994193;28;20054;-86
2023/04/18 10:15:58;;;;;;;15.35;8.10;;;16.50;95.20;;;;;;4996064;28;20061;-84
2023/04/18 10:18:45;;;;;;;13.57;7.68;;;16.50;94.80;;;;;;5013587;28;20549;-86
2023/04/18 10:21:31;;;;;;;15.93;7.72;;;16.70;94.80;;;;;;4969283;28;20085;-86
2023/04/18 10:24:51;;;;;;;14.32;6.63;;;16.80;94.80;;;;;;4995812;28;20189;-84
2023/04/18 10:27:46;;;;;;;13.45;6.63;;;17.00;93.90;;;;;;4982736;28;20061;-84
2023/04/18 10:30:39;;;;;;;;;;;17.10;94.60;;;;;;4996140;28;20054;-85
2023/04/18 10:33:39;;;;;;;11.48;7.35;;;17.10;94.70;;;;;;5015497;28;19948;-80
2023/04/18 10:36:26;;;;;;;10.25;6.47;;;17.10;94.30;;;;;;4997923;28;20046;-85
2023/04/18 10:39:21;;;;;;;11.30;5.93;;;17.00;94.10;;;;;;5012754;28;20496;-83
2023/04/18 10:42:07;;;;;;;10.07;5.90;;;17.50;93.90;;;;;;4995556;28;20054;-86
2023/04/18 10:45:17;;;;;;;10.98;6.38;;;17.50;94.10;;;;;;5011656;28;20050;-85
2023/04/18 10:48:31;;;;;;;10.93;6.20;;;17.60;93.50;;;;;;5012653;28;20046;-85
2023/04/18 10:51:36;;;;;;;13.77;6.35;;;17.90;93.40;;;;;;4995318;28;20058;-85
2023/04/18 10:54:29;;;;;;;12.40;5.88;;;17.90;92.60;;;;;;4994064;28;20376;-87
2023/04/18 10:57:15;;;;;;;11.70;5.82;;;17.90;92.80;;;;;;4995959;28;20063;-81
2023/04/18 11:00:03;;;;;;;13.00;6.50;;;18.00;93.20;;;;;;4982181;28;20064;-85
2023/04/18 11:02:56;;;;;;;10.77;6.20;;;18.10;93.10;;;;;;4993564;28;20501;-87
2023/04/18 11:05:42;;;;;;;9.00;5.07;;;18.20;92.50;;;;;;4997342;28;20088;-85
2023/04/18 11:08:28;;;;;;;9.98;5.25;;;18.20;91.90;;;;;;4993390;28;20050;-85
2023/04/18 11:11:15;;;;;;;8.68;4.82;;;18.40;91.60;;;;;;4981494;28;20053;-87
2023/04/18 11:14:01;;;;;;;10.57;5.47;;;18.30;91.10;;;;;;4993344;28;20064;-85
2023/04/18 11:16:47;;;;;;;15.57;5.97;;;18.50;91.50;;;;;;5011351;28;20057;-85
2023/04/18 11:19:34;;;;;;;12.48;5.82;;;18.50;90.80;;;;;;4997840;28;20406;-86
2023/04/18 11:22:20;;;;;;;11.73;5.35;;;18.60;91.20;;;;;;5009109;28;20059;-82
2023/04/18 11:25:07;;;;;;;10.77;5.97;;;18.80;91.20;;;;;;4980802;28;20140;-81
2023/04/18 11:27:56;;;;;;;12.63;7.22;;;18.80;91.30;;;;;;4993327;28;20058;-87
2023/04/18 11:30:42;;;;;;;13.52;6.50;;;18.90;90.90;;;;;;4993381;28;20410;-87
2023/04/18 11:33:30;;;;;;;12.05;6.43;;;18.80;90.90;;;;;;4981525;28;20231;-84
2023/04/18 11:36:19;;;;;;;18.10;6.88;;;19.10;90.40;;;;;;4985067;28;20498;-84
2023/04/18 11:39:05;;;;;;;18.65;8.07;;;19.00;90.90;;;;;;4980087;28;20108;-86
2023/04/18 11:41:52;;;;;;;17.85;7.47;;;18.90;91.40;;;;;;4994238;28;20517;-86
2023/04/18 11:44:38;;;;;;;12.70;6.75;;;19.10;91.60;;;;;;5010755;28;20049;-86
2023/04/18 11:47:27;;;;;;;20.40;8.43;;;19.00;91.10;;;;;;4996486;28;20105;-84
2023/04/18 11:50:13;;;;;;;17.67;8.07;;;19.10;91.40;;;;;;4992889;28;20136;-87
2023/04/18 11:52:59;;;;;;;19.52;8.55;;;19.30;91.10;;;;;;4992805;28;20405;-86
2023/04/18 11:55:55;;;;;;;17.65;8.88;;;19.30;90.80;;;;;;5009799;28;20057;-88
2023/04/18 11:58:41;;;;;;;18.27;8.57;;;19.30;90.70;;;;;;4992345;28;20057;-86
2023/04/18 12:01:27;;;;;;;18.92;8.27;;;19.50;90.90;;;;;;5010434;28;20169;-84
2023/04/18 12:04:15;;;;;;;13.70;6.85;;;19.50;90.80;;;;;;4992843;28;20084;-83
2023/04/18 12:07:04;;;;;;;10.80;6.55;;;19.80;90.60;;;;;;4980550;28;20050;-82
2023/04/18 12:09:51;;;;;;;18.25;6.60;;;19.60;88.60;;;;;;4992014;28;20065;-89
2023/04/18 12:12:50;;;;;;;16.45;6.38;;;19.90;88.70;;;;;;4994281;28;20054;-82
2023/04/18 12:15:43;;;;;;;11.55;7.60;;;20.00;89.00;;;;;;4982047;28;20124;-87
2023/04/18 12:18:32;;;;;;;11.15;5.95;;;20.50;85.30;;;;;;4995991;28;20053;-82
2023/04/18 12:21:18;;;;;;;9.73;6.07;;;20.50;84.60;;;;;;5015352;28;20085;-82
2023/04/18 12:24:17;;;;;;;12.48;6.75;;;20.30;82.50;;;;;;4995517;28;20054;-81
2023/04/18 12:27:03;;;;;;;9.80;5.72;;;20.50;82.50;;;;;;4982607;28;20062;-80
2023/04/18 12:29:49;;;;;;;11.25;6.05;;;20.80;81.60;;;;;;4984381;28;20092;-80
2023/04/18 12:32:35;;;;;;;10.43;5.55;;;21.00;81.20;;;;;;5000717;28;20054;-83
2023/04/18 12:35:23;;;;;;;14.25;6.35;;;21.40;80.20;;;;;;4984770;28;20059;-85
2023/04/18 12:38:09;;;;;;;10.18;5.72;;;21.70;80.10;;;;;;5001231;28;20078;-86
2023/04/18 12:40:55;;;;;;;20.13;7.07;;;22.60;78.30;;;;;;4989489;28;20061;-86
2023/04/18 12:43:41;;;;;;;13.23;7.30;;;22.70;74.30;;;;;;4990104;28;20038;-87
2023/04/18 12:46:30;;;;;;;12.98;7.05;;;22.70;72.10;;;;;;4991160;28;20046;-88
2023/04/18 12:49:16;;;;;;;15.23;7.28;;;22.40;70.60;;;;;;4975143;28;20062;-89
2023/04/18 12:52:02;;;;;;;11.40;6.85;;;22.50;70.30;;;;;;4988131;28;20157;-87
2023/04/18 12:54:48;;;;;;;11.20;7.22;;;22.20;69.90;;;;;;4988821;28;20058;-89
2023/04/18 12:57:39;;;;;;;17.92;8.18;;;22.60;69.60;;;;;;4991303;28;20061;-86
2023/04/18 13:00:28;;;;;;;11.85;7.40;;;22.70;68.00;;;;;;4989968;28;20514;-86
2023/04/18 13:03:14;;;;;;;11.65;7.22;;;22.70;67.40;;;;;;4989669;28;20141;-90
2023/04/18 13:06:00;;;;;;;15.20;7.05;;;22.90;66.70;;;;;;4988405;28;20436;-88
2023/04/18 13:08:46;;;;;;;15.00;7.95;;;23.30;65.40;;;;;;4989543;28;20090;-82
2023/04/18 13:11:32;;;;;;;11.68;7.30;;;23.10;65.80;;;;;;4976576;28;20062;-84
2023/04/18 13:14:18;;;;;;;11.70;7.47;;;23.30;64.00;;;;;;4975498;28;20141;-84
2023/04/18 13:17:05;;;;;;;10.85;7.22;;;22.40;63.70;;;;;;4988715;28;20515;-88
2023/04/18 13:19:51;;;;;;;12.20;7.22;;;22.70;64.30;;;;;;4990099;28;20058;-84
2023/04/18 13:22:38;;;;;;;12.15;7.22;;;23.00;64.30;;;;;;4990042;28;20054;-85
2023/04/18 13:25:25;;;;;;;11.77;7.68;;;23.80;62.10;;;;;;4989899;28;20161;-83
2023/04/18 13:28:11;;;;;;;11.88;7.72;;;24.10;61.70;;;;;;4988448;28;20057;-83
2023/04/18 13:30:58;;;;;;;12.10;7.90;;;24.50;59.20;;;;;;4976640;28;20065;-83
2023/04/18 13:33:44;;;;;;;11.93;7.93;;;24.30;59.10;;;;;;4991221;28;20089;-87
2023/04/18 13:36:33;;;;;;;13.85;8.20;;;24.50;59.20;;;;;;4989918;28;20109;-85
2023/04/18 13:39:23;;;;;;;13.90;7.03;;;24.60;58.30;;;;;;4990687;28;20137;-82
2023/04/18 13:42:09;;;;;;;12.88;7.43;;;24.70;57.80;;;;;;4988486;28;20047;-84
2023/04/18 13:44:56;;;;;;;13.27;8.68;;;24.90;57.30;;;;;;4989948;28;20533;-87
2023/04/18 13:47:46;;;;;;;13.10;8.15;;;25.40;57.00;;;;;;4993558;28;20506;-86
2023/04/18 13:50:32;;;;;;;15.80;7.78;;;26.10;55.20;;;;;;4979940;28;20481;-83
2023/04/18 13:53:18;;;;;;;14.85;8.15;;;25.60;54.60;;;;;;4994478;28;20463;-86
2023/04/18 13:56:04;;;;;;;11.77;8.23;;;26.40;54.70;;;;;;4995315;28;20081;-83
2023/04/18 13:58:50;;;;;;;14.98;8.65;;;26.30;54.10;;;;;;4978871;28;20073;-87
2023/04/18 14:01:38;;;;;;;16.02;9.00;;;26.20;53.40;;;;;;4979084;28;20473;-83
2023/04/18 14:04:24;;;;;;;18.80;8.80;;;26.60;53.30;;;;;;4992714;28;20051;-86
2023/04/18 14:07:10;;;;;;;11.05;7.30;;;26.30;52.80;;;;;;4979126;28;20058;-84
2023/04/18 14:09:59;;;;;;;14.48;8.00;;;25.80;52.20;;;;;;4992130;28;20038;-84
2023/04/18 14:12:45;;;;;;;11.07;7.45;;;26.00;52.70;;;;;;4992161;28;20093;-81
2023/04/18 14:15:32;;;;;;;13.05;7.82;;;26.00;52.50;;;;;;4991761;28;20054;-84
2023/04/18 14:18:20;;;;;;;13.75;7.07;;;26.30;52.60;;;;;;4992673;28;20112;-82
2023/04/18 14:21:06;;;;;;;12.60;7.72;;;27.10;52.30;;;;;;4991456;28;20061;-83
2023/04/18 14:23:52;;;;;;;13.70;7.35;;;26.80;50.70;;;;;;4991630;28;20050;-87
2023/04/18 14:26:38;;;;;;;10.95;7.50;;;26.80;50.30;;;;;;5007788;28;20083;-86
2023/04/18 14:29:26;;;;;;;14.07;8.48;;;26.80;50.50;;;;;;4994557;28;20052;-81